Wayside, Texas
Current Conditions -  °F | °C
As of 6:53 PM on Saturday 25 Oct 2014 (Local Time) from KAMA Reporting Station
Clear Clear  
Wind Chill: 77°   Ceiling: Unl
Heat Index: 78°   Visibility: 10mi
Dew Point: 49°   Wind: 13mph
Humidity: 37%   Direction: 180°S
Pressure: 30.08"   Gusts: NA
Location:  34.79°N, 101.55°W
Report Text: KAMA 252353Z 18011KT 10SM CLR 25/09 A3008 RMK AO2 SLP144 T02500094 10294 20250 57010
Loading
Personal Weather Stations






























Interactive Weather Map
Tropical Storm Tracking
New forecast layout! Learn more

10-Day Weather Forecast

Advertisements
Track Severe Weather on mobile